createdAt,value
2018-08-22T00:00:23.611Z,0
2018-08-22T00:10:38.192Z,0
2018-08-22T00:20:53.879Z,0
2018-08-22T00:31:08.064Z,0
2018-08-22T00:41:22.399Z,0
2018-08-22T00:51:36.567Z,0
2018-08-22T01:01:51.259Z,0
2018-08-22T01:12:05.509Z,0
2018-08-22T01:22:20.645Z,0
2018-08-22T01:32:34.933Z,0
2018-08-22T01:42:50.065Z,0
2018-08-22T01:53:04.891Z,0
2018-08-22T02:03:20.604Z,0
2018-08-22T02:13:34.863Z,0
2018-08-22T02:23:48.934Z,0
2018-08-22T02:34:03.950Z,0
2018-08-22T02:44:18.842Z,0
2018-08-22T02:54:33.412Z,0
2018-08-22T03:04:47.768Z,0
2018-08-22T03:15:01.685Z,0
2018-08-22T03:25:16.188Z,0
2018-08-22T03:35:30.648Z,0
2018-08-22T03:45:45.364Z,0
2018-08-22T03:55:59.935Z,0
2018-08-22T04:06:15.014Z,0
2018-08-22T04:16:30.317Z,0
2018-08-22T04:26:45.154Z,10
2018-08-22T04:37:00.121Z,20
2018-08-22T04:47:14.627Z,40
2018-08-22T04:57:28.396Z,50
2018-08-22T05:07:42.976Z,55
2018-08-22T05:17:58.694Z,85
2018-08-22T05:28:12.706Z,135
2018-08-22T05:38:27.392Z,155
2018-08-22T05:48:41.756Z,210
2018-08-22T05:58:55.803Z,250
2018-08-22T06:09:10.968Z,270
2018-08-22T06:19:25.606Z,320
2018-08-22T06:29:40.743Z,325
2018-08-22T06:39:55.241Z,385
2018-08-22T06:50:10.973Z,450
2018-08-22T07:00:25.862Z,365
2018-08-22T07:10:40.153Z,320
2018-08-22T07:20:55.263Z,385
2018-08-22T07:31:09.261Z,745
2018-08-22T07:41:23.573Z,865
2018-08-22T07:51:38.416Z,865
2018-08-22T08:01:53.380Z,955
2018-08-22T08:12:08.427Z,1020
2018-08-22T08:22:22.733Z,905
2018-08-22T08:32:37.644Z,900
2018-08-22T08:42:52.593Z,1230
2018-08-22T08:53:06.841Z,1230
2018-08-22T09:03:21.609Z,1305
2018-08-22T09:13:36.347Z,1295
2018-08-22T09:23:51.745Z,1420
2018-08-22T09:34:05.971Z,1410
2018-08-22T09:44:21.650Z,1335
2018-08-22T09:54:37.436Z,1455
2018-08-22T10:04:51.862Z,1555
2018-08-22T10:15:06.115Z,1505
2018-08-22T10:25:21.620Z,1040
2018-08-22T10:35:36.269Z,1345
2018-08-22T10:45:50.316Z,1375
2018-08-22T10:56:05.301Z,1255
2018-08-22T11:06:20.531Z,975
2018-08-22T11:16:36.273Z,920
2018-08-22T11:26:51.697Z,1305
2018-08-22T11:37:05.775Z,1375
2018-08-22T11:47:20.690Z,2840
2018-08-22T11:57:34.641Z,725
2018-08-22T12:07:49.948Z,1980
2018-08-22T12:18:05.250Z,1385
2018-08-22T12:28:19.604Z,2595
2018-08-22T12:38:34.374Z,1640
2018-08-22T12:48:50.084Z,1905
2018-08-22T12:59:05.788Z,1570
2018-08-22T13:09:21.108Z,1960
2018-08-22T13:19:35.404Z,485
2018-08-22T13:29:49.995Z,1625
2018-08-22T13:40:05.814Z,1695
2018-08-22T13:50:20.066Z,1455
2018-08-22T14:00:35.583Z,1525
2018-08-22T14:10:50.665Z,1530
2018-08-22T14:21:04.940Z,1380
2018-08-22T14:31:19.831Z,1015
2018-08-22T14:41:34.596Z,555
2018-08-22T14:51:49.653Z,1285
2018-08-22T15:02:03.855Z,1070
2018-08-22T15:12:18.729Z,890
2018-08-22T15:22:32.667Z,985
2018-08-22T15:32:47.141Z,920
2018-08-22T15:43:01.604Z,830
2018-08-22T15:53:16.611Z,675
2018-08-22T16:03:32.006Z,655
2018-08-22T16:13:46.994Z,610
2018-08-22T16:24:01.385Z,585
2018-08-22T16:34:15.499Z,535
2018-08-22T16:44:29.916Z,470
2018-08-22T16:54:45.071Z,385
2018-08-22T17:04:59.669Z,320
2018-08-22T17:15:15.403Z,265
2018-08-22T17:25:30.669Z,175
2018-08-22T17:35:45.966Z,125
2018-08-22T17:46:01.301Z,100
2018-08-22T17:56:15.841Z,75
2018-08-22T18:06:30.539Z,55
2018-08-22T18:16:44.723Z,40
2018-08-22T18:27:00.393Z,20
2018-08-22T18:37:14.361Z,10
2018-08-22T18:47:30.017Z,0
2018-08-22T18:57:45.289Z,0
2018-08-22T19:08:00.693Z,0
2018-08-22T19:18:15.051Z,0
2018-08-22T19:28:28.940Z,0
2018-08-22T19:38:44.295Z,0
2018-08-22T19:48:58.379Z,0
2018-08-22T19:59:13.841Z,0
2018-08-22T20:09:29.761Z,0
2018-08-22T20:19:45.310Z,0
2018-08-22T20:30:00.507Z,0
2018-08-22T20:40:15.919Z,0
2018-08-22T20:50:31.439Z,0
2018-08-22T21:00:46.414Z,0
2018-08-22T21:11:01.952Z,0
2018-08-22T21:21:17.704Z,0
2018-08-22T21:31:32.519Z,0
2018-08-22T21:41:46.751Z,0
2018-08-22T21:52:01.834Z,0
2018-08-22T22:02:15.814Z,0
2018-08-22T22:12:31.287Z,0
2018-08-22T22:22:45.736Z,0
2018-08-22T22:33:01.162Z,0
2018-08-22T22:43:16.182Z,0
2018-08-22T22:53:30.436Z,0
2018-08-22T23:03:45.642Z,0
2018-08-22T23:13:59.905Z,0
2018-08-22T23:24:14.960Z,0
2018-08-22T23:34:30.666Z,0
2018-08-22T23:44:45.189Z,0
2018-08-22T23:55:00.274Z,0
